Country
Station

 

Weather  for  Yellowstone Lake  -  United States    United States

  
2 °C (36 °F)
    
 
 

Current METAR for Yellowstone Lake is :

KP60 021056Z AUTO 00000KT 02/01 A3013 RMK AO1 SLP151 T00220006

 

This is a report for Yellowstone Lake - United States.
 
The report was made 53 minutes ago, at 10:56 UTC .
The wind was calm.
 
The temperature was 2 °C (36 °F), with a dew-point at 1 °C (34 °F).
The atmospheric pressure was 1020 hPa (30.13 inHg).
The relative humidity was 93.1%.
 

 
 
 
 

Country :   A   B   C   D   E   F   G   H   I   J   K   L   M   N   O   P   Q   R   S   T   U   V   W   Y   Z

 

Site Info  |  Disclaimer  |  Credits  |  Privacy
Contact us  |  Add to favorites
© 2013-2020 METARs - All rights reserved